sensor_id;sensor_type;location;lat;lon;timestamp;P1;durP1;ratioP1;P2;durP2;ratioP2
30874;SDS011;17581;43.222;27.924;2022-12-07T00:01:27;9.23;;;3.03;;
30874;SDS011;17581;43.222;27.924;2022-12-07T00:03:54;19.58;;;3.55;;
30874;SDS011;17581;43.222;27.924;2022-12-07T00:06:29;5.80;;;3.70;;
30874;SDS011;17581;43.222;27.924;2022-12-07T00:08:55;8.13;;;2.35;;
30874;SDS011;17581;43.222;27.924;2022-12-07T00:11:21;19.30;;;4.75;;
30874;SDS011;17581;43.222;27.924;2022-12-07T00:13:51;13.50;;;4.30;;
30874;SDS011;17581;43.222;27.924;2022-12-07T00:16:18;16.67;;;3.42;;
30874;SDS011;17581;43.222;27.924;2022-12-07T00:18:45;10.00;;;4.38;;
30874;SDS011;17581;43.222;27.924;2022-12-07T00:21:12;10.73;;;4.15;;
30874;SDS011;17581;43.222;27.924;2022-12-07T00:23:46;10.85;;;4.45;;
30874;SDS011;17581;43.222;27.924;2022-12-07T00:26:14;11.43;;;4.65;;
30874;SDS011;17581;43.222;27.924;2022-12-07T00:28:49;14.65;;;5.70;;
30874;SDS011;17581;43.222;27.924;2022-12-07T00:31:17;11.43;;;6.13;;
30874;SDS011;17581;43.222;27.924;2022-12-07T00:33:43;11.02;;;6.20;;
30874;SDS011;17581;43.222;27.924;2022-12-07T00:36:10;16.58;;;4.97;;
30874;SDS011;17581;43.222;27.924;2022-12-07T00:38:38;14.35;;;5.15;;
30874;SDS011;17581;43.222;27.924;2022-12-07T00:41:05;11.23;;;4.85;;
30874;SDS011;17581;43.222;27.924;2022-12-07T00:43:33;8.45;;;4.47;;
30874;SDS011;17581;43.222;27.924;2022-12-07T00:45:58;8.85;;;4.82;;
30874;SDS011;17581;43.222;27.924;2022-12-07T00:48:24;7.35;;;3.92;;
30874;SDS011;17581;43.222;27.924;2022-12-07T00:50:50;6.20;;;3.60;;
30874;SDS011;17581;43.222;27.924;2022-12-07T00:53:16;7.18;;;4.57;;
30874;SDS011;17581;43.222;27.924;2022-12-07T00:55:42;7.50;;;4.20;;
30874;SDS011;17581;43.222;27.924;2022-12-07T00:58:08;5.63;;;3.42;;
30874;SDS011;17581;43.222;27.924;2022-12-07T01:00:35;7.63;;;3.70;;
30874;SDS011;17581;43.222;27.924;2022-12-07T01:03:01;7.88;;;3.60;;
30874;SDS011;17581;43.222;27.924;2022-12-07T01:05:27;9.95;;;3.72;;
30874;SDS011;17581;43.222;27.924;2022-12-07T01:07:52;8.32;;;4.63;;
30874;SDS011;17581;43.222;27.924;2022-12-07T01:10:18;10.57;;;3.95;;
30874;SDS011;17581;43.222;27.924;2022-12-07T01:12:43;11.23;;;3.58;;
30874;SDS011;17581;43.222;27.924;2022-12-07T01:15:09;11.32;;;4.18;;
30874;SDS011;17581;43.222;27.924;2022-12-07T01:17:35;8.70;;;4.15;;
30874;SDS011;17581;43.222;27.924;2022-12-07T01:20:00;8.38;;;3.88;;
30874;SDS011;17581;43.222;27.924;2022-12-07T01:22:27;8.63;;;3.70;;
30874;SDS011;17581;43.222;27.924;2022-12-07T01:24:52;9.50;;;3.25;;
30874;SDS011;17581;43.222;27.924;2022-12-07T01:27:18;9.55;;;3.95;;
30874;SDS011;17581;43.222;27.924;2022-12-07T01:29:43;7.00;;;3.55;;
30874;SDS011;17581;43.222;27.924;2022-12-07T01:32:10;4.40;;;3.03;;
30874;SDS011;17581;43.222;27.924;2022-12-07T01:34:35;7.57;;;4.40;;
30874;SDS011;17581;43.222;27.924;2022-12-07T01:37:01;6.40;;;3.67;;
30874;SDS011;17581;43.222;27.924;2022-12-07T01:39:26;6.63;;;3.58;;
30874;SDS011;17581;43.222;27.924;2022-12-07T01:41:52;8.75;;;3.92;;
30874;SDS011;17581;43.222;27.924;2022-12-07T01:44:28;6.65;;;3.33;;
30874;SDS011;17581;43.222;27.924;2022-12-07T01:54:43;11.93;;;4.03;;
30874;SDS011;17581;43.222;27.924;2022-12-07T01:57:10;8.02;;;3.70;;
30874;SDS011;17581;43.222;27.924;2022-12-07T01:59:38;8.68;;;3.60;;
30874;SDS011;17581;43.222;27.924;2022-12-07T02:02:04;8.82;;;3.88;;
30874;SDS011;17581;43.222;27.924;2022-12-07T02:04:35;15.00;;;4.20;;
30874;SDS011;17581;43.222;27.924;2022-12-07T02:07:01;10.57;;;4.85;;
30874;SDS011;17581;43.222;27.924;2022-12-07T02:09:29;6.45;;;4.25;;
30874;SDS011;17581;43.222;27.924;2022-12-07T02:11:55;5.97;;;3.67;;
30874;SDS011;17581;43.222;27.924;2022-12-07T02:14:21;6.70;;;4.28;;
30874;SDS011;17581;43.222;27.924;2022-12-07T02:16:48;5.72;;;4.10;;
30874;SDS011;17581;43.222;27.924;2022-12-07T02:30:26;8.35;;;5.00;;
30874;SDS011;17581;43.222;27.924;2022-12-07T02:35:38;10.05;;;6.38;;
30874;SDS011;17581;43.222;27.924;2022-12-07T02:38:22;7.80;;;5.65;;
30874;SDS011;17581;43.222;27.924;2022-12-07T02:41:13;9.63;;;6.75;;
30874;SDS011;17581;43.222;27.924;2022-12-07T02:43:46;10.55;;;5.35;;
30874;SDS011;17581;43.222;27.924;2022-12-07T02:46:17;12.85;;;6.15;;
30874;SDS011;17581;43.222;27.924;2022-12-07T02:48:47;8.25;;;6.07;;
30874;SDS011;17581;43.222;27.924;2022-12-07T02:51:16;9.95;;;6.55;;
30874;SDS011;17581;43.222;27.924;2022-12-07T02:53:43;15.00;;;7.38;;
30874;SDS011;17581;43.222;27.924;2022-12-07T03:02:14;11.27;;;7.00;;
30874;SDS011;17581;43.222;27.924;2022-12-07T03:10:52;10.65;;;6.32;;
30874;SDS011;17581;43.222;27.924;2022-12-07T03:16:14;14.13;;;6.30;;
30874;SDS011;17581;43.222;27.924;2022-12-07T03:18:44;17.85;;;7.07;;
30874;SDS011;17581;43.222;27.924;2022-12-07T03:21:16;17.70;;;7.07;;
30874;SDS011;17581;43.222;27.924;2022-12-07T03:23:46;14.02;;;8.57;;
30874;SDS011;17581;43.222;27.924;2022-12-07T03:26:16;9.70;;;7.43;;
30874;SDS011;17581;43.222;27.924;2022-12-07T03:28:46;11.27;;;8.02;;
30874;SDS011;17581;43.222;27.924;2022-12-07T03:31:26;13.45;;;8.57;;
30874;SDS011;17581;43.222;27.924;2022-12-07T03:36:50;14.18;;;7.85;;
30874;SDS011;17581;43.222;27.924;2022-12-07T03:42:01;13.25;;;8.32;;
30874;SDS011;17581;43.222;27.924;2022-12-07T03:44:29;11.13;;;7.85;;
30874;SDS011;17581;43.222;27.924;2022-12-07T03:49:49;17.17;;;8.60;;
30874;SDS011;17581;43.222;27.924;2022-12-07T03:55:10;18.35;;;9.32;;
30874;SDS011;17581;43.222;27.924;2022-12-07T03:57:42;11.80;;;7.97;;
30874;SDS011;17581;43.222;27.924;2022-12-07T04:00:10;12.43;;;8.95;;
30874;SDS011;17581;43.222;27.924;2022-12-07T04:02:36;13.50;;;9.35;;
30874;SDS011;17581;43.222;27.924;2022-12-07T04:05:02;14.20;;;9.65;;
30874;SDS011;17581;43.222;27.924;2022-12-07T04:07:28;14.88;;;9.85;;
30874;SDS011;17581;43.222;27.924;2022-12-07T04:09:53;15.23;;;10.75;;
30874;SDS011;17581;43.222;27.924;2022-12-07T04:12:20;14.73;;;11.10;;
30874;SDS011;17581;43.222;27.924;2022-12-07T04:14:46;14.15;;;9.30;;
30874;SDS011;17581;43.222;27.924;2022-12-07T04:17:11;14.27;;;9.82;;
30874;SDS011;17581;43.222;27.924;2022-12-07T04:19:37;12.70;;;9.23;;
30874;SDS011;17581;43.222;27.924;2022-12-07T04:22:03;14.63;;;9.98;;
30874;SDS011;17581;43.222;27.924;2022-12-07T04:24:29;14.10;;;9.65;;
30874;SDS011;17581;43.222;27.924;2022-12-07T04:26:55;12.90;;;9.52;;
30874;SDS011;17581;43.222;27.924;2022-12-07T04:29:21;19.05;;;9.10;;
30874;SDS011;17581;43.222;27.924;2022-12-07T04:31:46;19.60;;;9.50;;
30874;SDS011;17581;43.222;27.924;2022-12-07T04:34:12;15.18;;;9.60;;
30874;SDS011;17581;43.222;27.924;2022-12-07T04:36:38;14.88;;;9.90;;
30874;SDS011;17581;43.222;27.924;2022-12-07T04:39:05;43.22;;;22.70;;
30874;SDS011;17581;43.222;27.924;2022-12-07T04:41:31;20.75;;;14.32;;
30874;SDS011;17581;43.222;27.924;2022-12-07T04:43:59;14.23;;;10.48;;
30874;SDS011;17581;43.222;27.924;2022-12-07T04:46:26;17.80;;;10.30;;
30874;SDS011;17581;43.222;27.924;2022-12-07T04:48:53;14.63;;;10.68;;
30874;SDS011;17581;43.222;27.924;2022-12-07T04:51:24;16.77;;;10.15;;
30874;SDS011;17581;43.222;27.924;2022-12-07T04:53:51;16.35;;;11.18;;
30874;SDS011;17581;43.222;27.924;2022-12-07T04:56:17;21.98;;;12.02;;
30874;SDS011;17581;43.222;27.924;2022-12-07T04:58:44;22.60;;;11.07;;
30874;SDS011;17581;43.222;27.924;2022-12-07T05:01:10;21.23;;;12.02;;
30874;SDS011;17581;43.222;27.924;2022-12-07T05:03:37;21.83;;;13.70;;
30874;SDS011;17581;43.222;27.924;2022-12-07T05:06:03;20.40;;;11.98;;
30874;SDS011;17581;43.222;27.924;2022-12-07T05:08:28;21.00;;;11.65;;
30874;SDS011;17581;43.222;27.924;2022-12-07T05:10:54;18.85;;;11.98;;
30874;SDS011;17581;43.222;27.924;2022-12-07T05:13:19;22.15;;;13.40;;
30874;SDS011;17581;43.222;27.924;2022-12-07T05:15:46;27.48;;;13.38;;
30874;SDS011;17581;43.222;27.924;2022-12-07T05:18:12;27.40;;;15.05;;
30874;SDS011;17581;43.222;27.924;2022-12-07T05:20:38;21.10;;;14.90;;
30874;SDS011;17581;43.222;27.924;2022-12-07T05:23:04;22.35;;;15.02;;
30874;SDS011;17581;43.222;27.924;2022-12-07T05:25:29;24.35;;;15.18;;
30874;SDS011;17581;43.222;27.924;2022-12-07T05:27:55;25.55;;;15.77;;
30874;SDS011;17581;43.222;27.924;2022-12-07T05:30:21;30.98;;;17.85;;
30874;SDS011;17581;43.222;27.924;2022-12-07T05:32:48;28.13;;;18.48;;
30874;SDS011;17581;43.222;27.924;2022-12-07T05:35:14;31.80;;;18.20;;
30874;SDS011;17581;43.222;27.924;2022-12-07T05:37:39;32.47;;;16.65;;
30874;SDS011;17581;43.222;27.924;2022-12-07T05:40:05;33.70;;;19.23;;
30874;SDS011;17581;43.222;27.924;2022-12-07T05:42:30;38.83;;;20.25;;
30874;SDS011;17581;43.222;27.924;2022-12-07T05:44:56;34.60;;;19.98;;
30874;SDS011;17581;43.222;27.924;2022-12-07T05:47:21;38.17;;;21.08;;
30874;SDS011;17581;43.222;27.924;2022-12-07T05:49:47;37.88;;;22.08;;
30874;SDS011;17581;43.222;27.924;2022-12-07T05:52:12;43.63;;;23.17;;
30874;SDS011;17581;43.222;27.924;2022-12-07T05:54:38;38.97;;;23.67;;
30874;SDS011;17581;43.222;27.924;2022-12-07T05:57:03;45.88;;;23.90;;
30874;SDS011;17581;43.222;27.924;2022-12-07T05:59:28;43.53;;;25.77;;
30874;SDS011;17581;43.222;27.924;2022-12-07T06:01:55;44.97;;;25.17;;
30874;SDS011;17581;43.222;27.924;2022-12-07T06:04:24;46.58;;;28.05;;
30874;SDS011;17581;43.222;27.924;2022-12-07T06:06:51;55.85;;;27.05;;
30874;SDS011;17581;43.222;27.924;2022-12-07T06:09:18;57.88;;;30.30;;
30874;SDS011;17581;43.222;27.924;2022-12-07T06:11:44;67.93;;;31.70;;
30874;SDS011;17581;43.222;27.924;2022-12-07T06:14:28;62.85;;;30.05;;
30874;SDS011;17581;43.222;27.924;2022-12-07T06:16:54;64.80;;;30.95;;
30874;SDS011;17581;43.222;27.924;2022-12-07T06:19:19;67.38;;;31.80;;
30874;SDS011;17581;43.222;27.924;2022-12-07T06:21:45;68.85;;;33.80;;
30874;SDS011;17581;43.222;27.924;2022-12-07T06:24:11;64.28;;;30.88;;
30874;SDS011;17581;43.222;27.924;2022-12-07T06:26:37;62.78;;;31.63;;
30874;SDS011;17581;43.222;27.924;2022-12-07T06:29:04;62.10;;;34.42;;
30874;SDS011;17581;43.222;27.924;2022-12-07T06:31:29;60.42;;;30.23;;
30874;SDS011;17581;43.222;27.924;2022-12-07T06:33:58;60.70;;;28.27;;
30874;SDS011;17581;43.222;27.924;2022-12-07T06:36:25;49.33;;;29.33;;
30874;SDS011;17581;43.222;27.924;2022-12-07T06:38:50;52.38;;;28.85;;
30874;SDS011;17581;43.222;27.924;2022-12-07T06:41:16;86.78;;;42.17;;
30874;SDS011;17581;43.222;27.924;2022-12-07T06:43:41;46.13;;;25.75;;
30874;SDS011;17581;43.222;27.924;2022-12-07T06:46:07;52.72;;;28.55;;
30874;SDS011;17581;43.222;27.924;2022-12-07T06:48:33;47.72;;;25.25;;
30874;SDS011;17581;43.222;27.924;2022-12-07T06:50:58;47.80;;;25.67;;
30874;SDS011;17581;43.222;27.924;2022-12-07T06:53:24;43.72;;;23.90;;
30874;SDS011;17581;43.222;27.924;2022-12-07T06:55:49;38.85;;;23.13;;
30874;SDS011;17581;43.222;27.924;2022-12-07T06:58:15;43.55;;;24.20;;
30874;SDS011;17581;43.222;27.924;2022-12-07T07:00:41;40.60;;;23.52;;
30874;SDS011;17581;43.222;27.924;2022-12-07T07:03:06;37.53;;;23.38;;
30874;SDS011;17581;43.222;27.924;2022-12-07T07:05:31;41.58;;;20.50;;
30874;SDS011;17581;43.222;27.924;2022-12-07T07:07:57;40.72;;;22.33;;
30874;SDS011;17581;43.222;27.924;2022-12-07T07:10:22;39.30;;;22.67;;
30874;SDS011;17581;43.222;27.924;2022-12-07T07:12:48;41.80;;;23.73;;
30874;SDS011;17581;43.222;27.924;2022-12-07T07:15:13;37.22;;;21.80;;
30874;SDS011;17581;43.222;27.924;2022-12-07T07:17:39;44.05;;;20.13;;
30874;SDS011;17581;43.222;27.924;2022-12-07T07:20:04;36.92;;;24.65;;
30874;SDS011;17581;43.222;27.924;2022-12-07T07:22:30;34.58;;;20.80;;
30874;SDS011;17581;43.222;27.924;2022-12-07T07:24:56;30.38;;;20.17;;
30874;SDS011;17581;43.222;27.924;2022-12-07T07:27:21;29.15;;;17.10;;
30874;SDS011;17581;43.222;27.924;2022-12-07T07:29:46;32.38;;;19.73;;
30874;SDS011;17581;43.222;27.924;2022-12-07T07:32:12;31.73;;;19.70;;
30874;SDS011;17581;43.222;27.924;2022-12-07T07:34:37;33.20;;;19.63;;
30874;SDS011;17581;43.222;27.924;2022-12-07T07:37:03;35.33;;;19.90;;
30874;SDS011;17581;43.222;27.924;2022-12-07T07:39:28;33.45;;;18.40;;
30874;SDS011;17581;43.222;27.924;2022-12-07T07:41:54;39.45;;;22.45;;
30874;SDS011;17581;43.222;27.924;2022-12-07T07:44:19;31.25;;;19.50;;
30874;SDS011;17581;43.222;27.924;2022-12-07T07:46:44;34.03;;;18.83;;
30874;SDS011;17581;43.222;27.924;2022-12-07T07:49:10;39.28;;;20.05;;
30874;SDS011;17581;43.222;27.924;2022-12-07T07:51:36;36.83;;;20.55;;
30874;SDS011;17581;43.222;27.924;2022-12-07T07:54:02;41.15;;;19.25;;
30874;SDS011;17581;43.222;27.924;2022-12-07T07:56:28;27.73;;;18.27;;
30874;SDS011;17581;43.222;27.924;2022-12-07T07:58:54;41.35;;;19.58;;
30874;SDS011;17581;43.222;27.924;2022-12-07T08:01:20;39.47;;;20.65;;
30874;SDS011;17581;43.222;27.924;2022-12-07T08:03:48;34.55;;;19.70;;
30874;SDS011;17581;43.222;27.924;2022-12-07T08:06:14;31.98;;;17.80;;
30874;SDS011;17581;43.222;27.924;2022-12-07T08:08:39;42.42;;;18.58;;
30874;SDS011;17581;43.222;27.924;2022-12-07T08:11:05;40.72;;;18.45;;
30874;SDS011;17581;43.222;27.924;2022-12-07T08:13:32;36.47;;;17.15;;
30874;SDS011;17581;43.222;27.924;2022-12-07T08:15:58;36.90;;;17.27;;
30874;SDS011;17581;43.222;27.924;2022-12-07T08:18:23;43.55;;;18.13;;
30874;SDS011;17581;43.222;27.924;2022-12-07T08:20:49;29.40;;;16.60;;
30874;SDS011;17581;43.222;27.924;2022-12-07T08:23:14;29.85;;;17.45;;
30874;SDS011;17581;43.222;27.924;2022-12-07T08:25:39;33.65;;;19.67;;
30874;SDS011;17581;43.222;27.924;2022-12-07T08:28:05;53.78;;;19.73;;
30874;SDS011;17581;43.222;27.924;2022-12-07T08:30:31;33.33;;;15.63;;
30874;SDS011;17581;43.222;27.924;2022-12-07T08:32:57;33.75;;;16.40;;
30874;SDS011;17581;43.222;27.924;2022-12-07T08:35:23;48.80;;;17.30;;
30874;SDS011;17581;43.222;27.924;2022-12-07T08:37:49;33.45;;;16.80;;
30874;SDS011;17581;43.222;27.924;2022-12-07T08:40:15;33.28;;;14.63;;
30874;SDS011;17581;43.222;27.924;2022-12-07T08:42:44;31.58;;;14.57;;
30874;SDS011;17581;43.222;27.924;2022-12-07T08:47:53;31.80;;;15.48;;
30874;SDS011;17581;43.222;27.924;2022-12-07T08:50:27;26.70;;;12.25;;
30874;SDS011;17581;43.222;27.924;2022-12-07T08:52:53;20.88;;;10.65;;
30874;SDS011;17581;43.222;27.924;2022-12-07T08:55:22;23.38;;;12.00;;
30874;SDS011;17581;43.222;27.924;2022-12-07T08:57:48;31.58;;;15.07;;
30874;SDS011;17581;43.222;27.924;2022-12-07T09:00:14;37.20;;;20.20;;
30874;SDS011;17581;43.222;27.924;2022-12-07T09:02:42;21.77;;;12.52;;
30874;SDS011;17581;43.222;27.924;2022-12-07T09:05:09;23.85;;;13.85;;
30874;SDS011;17581;43.222;27.924;2022-12-07T09:07:35;22.27;;;13.48;;
30874;SDS011;17581;43.222;27.924;2022-12-07T09:10:01;23.95;;;13.25;;
30874;SDS011;17581;43.222;27.924;2022-12-07T09:12:26;28.17;;;15.07;;
30874;SDS011;17581;43.222;27.924;2022-12-07T09:14:52;22.88;;;12.68;;
30874;SDS011;17581;43.222;27.924;2022-12-07T09:17:17;27.75;;;14.63;;
30874;SDS011;17581;43.222;27.924;2022-12-07T09:19:43;20.73;;;12.77;;
30874;SDS011;17581;43.222;27.924;2022-12-07T09:22:08;24.25;;;13.50;;
30874;SDS011;17581;43.222;27.924;2022-12-07T09:24:34;41.38;;;16.63;;
30874;SDS011;17581;43.222;27.924;2022-12-07T09:26:59;30.15;;;17.05;;
30874;SDS011;17581;43.222;27.924;2022-12-07T09:29:25;29.92;;;14.30;;
30874;SDS011;17581;43.222;27.924;2022-12-07T09:31:51;30.35;;;14.40;;
30874;SDS011;17581;43.222;27.924;2022-12-07T09:34:16;27.45;;;12.70;;
30874;SDS011;17581;43.222;27.924;2022-12-07T09:36:42;33.20;;;14.52;;
30874;SDS011;17581;43.222;27.924;2022-12-07T09:39:08;23.98;;;13.73;;
30874;SDS011;17581;43.222;27.924;2022-12-07T09:41:37;25.58;;;13.45;;
30874;SDS011;17581;43.222;27.924;2022-12-07T09:44:05;26.30;;;14.45;;
30874;SDS011;17581;43.222;27.924;2022-12-07T09:46:35;27.25;;;12.90;;
30874;SDS011;17581;43.222;27.924;2022-12-07T09:49:03;21.40;;;11.90;;
30874;SDS011;17581;43.222;27.924;2022-12-07T09:51:30;27.70;;;14.07;;
30874;SDS011;17581;43.222;27.924;2022-12-07T09:53:56;25.65;;;13.60;;
30874;SDS011;17581;43.222;27.924;2022-12-07T09:56:23;30.70;;;14.48;;
30874;SDS011;17581;43.222;27.924;2022-12-07T09:58:50;36.45;;;13.82;;
30874;SDS011;17581;43.222;27.924;2022-12-07T10:01:38;22.33;;;13.65;;
30874;SDS011;17581;43.222;27.924;2022-12-07T10:04:12;29.23;;;13.73;;
30874;SDS011;17581;43.222;27.924;2022-12-07T10:06:51;35.88;;;15.70;;
30874;SDS011;17581;43.222;27.924;2022-12-07T10:09:17;27.80;;;15.32;;
30874;SDS011;17581;43.222;27.924;2022-12-07T10:14:29;53.47;;;27.38;;
30874;SDS011;17581;43.222;27.924;2022-12-07T10:16:56;36.75;;;19.23;;
30874;SDS011;17581;43.222;27.924;2022-12-07T10:19:26;31.40;;;17.83;;
30874;SDS011;17581;43.222;27.924;2022-12-07T10:24:36;28.40;;;15.52;;
30874;SDS011;17581;43.222;27.924;2022-12-07T10:27:04;40.60;;;22.25;;
30874;SDS011;17581;43.222;27.924;2022-12-07T10:29:34;29.83;;;15.15;;
30874;SDS011;17581;43.222;27.924;2022-12-07T10:32:04;29.02;;;14.48;;
30874;SDS011;17581;43.222;27.924;2022-12-07T10:34:39;26.10;;;14.73;;
30874;SDS011;17581;43.222;27.924;2022-12-07T10:39:49;28.10;;;15.10;;
30874;SDS011;17581;43.222;27.924;2022-12-07T10:42:18;44.28;;;22.17;;
30874;SDS011;17581;43.222;27.924;2022-12-07T10:47:55;41.28;;;17.52;;
30874;SDS011;17581;43.222;27.924;2022-12-07T11:16:02;35.65;;;16.40;;
30874;SDS011;17581;43.222;27.924;2022-12-07T11:21:33;39.15;;;15.98;;
30874;SDS011;17581;43.222;27.924;2022-12-07T11:35:03;41.80;;;15.07;;
30874;SDS011;17581;43.222;27.924;2022-12-07T11:37:34;31.20;;;12.65;;
30874;SDS011;17581;43.222;27.924;2022-12-07T11:40:02;43.38;;;14.23;;
30874;SDS011;17581;43.222;27.924;2022-12-07T11:42:51;30.35;;;14.05;;
30874;SDS011;17581;43.222;27.924;2022-12-07T11:45:22;67.68;;;14.68;;
30874;SDS011;17581;43.222;27.924;2022-12-07T11:50:45;59.50;;;15.70;;
30874;SDS011;17581;43.222;27.924;2022-12-07T11:53:18;31.38;;;13.57;;
30874;SDS011;17581;43.222;27.924;2022-12-07T11:58:22;41.70;;;14.65;;
30874;SDS011;17581;43.222;27.924;2022-12-07T12:00:55;42.30;;;16.92;;
30874;SDS011;17581;43.222;27.924;2022-12-07T12:03:51;36.92;;;16.63;;
30874;SDS011;17581;43.222;27.924;2022-12-07T12:06:19;43.88;;;15.88;;
30874;SDS011;17581;43.222;27.924;2022-12-07T12:08:56;38.92;;;16.35;;
30874;SDS011;17581;43.222;27.924;2022-12-07T12:20:00;67.95;;;15.88;;
30874;SDS011;17581;43.222;27.924;2022-12-07T12:22:43;40.13;;;15.40;;
30874;SDS011;17581;43.222;27.924;2022-12-07T12:25:27;70.22;;;18.67;;
30874;SDS011;17581;43.222;27.924;2022-12-07T12:27:57;22.98;;;13.15;;
30874;SDS011;17581;43.222;27.924;2022-12-07T12:30:26;66.13;;;15.88;;
30874;SDS011;17581;43.222;27.924;2022-12-07T12:33:30;29.15;;;14.68;;
30874;SDS011;17581;43.222;27.924;2022-12-07T12:39:16;43.95;;;16.83;;
30874;SDS011;17581;43.222;27.924;2022-12-07T12:46:49;47.78;;;17.83;;
30874;SDS011;17581;43.222;27.924;2022-12-07T12:51:46;60.00;;;19.17;;
30874;SDS011;17581;43.222;27.924;2022-12-07T12:54:31;48.28;;;24.02;;
30874;SDS011;17581;43.222;27.924;2022-12-07T12:57:01;35.80;;;15.95;;
30874;SDS011;17581;43.222;27.924;2022-12-07T13:18:16;31.55;;;14.18;;
30874;SDS011;17581;43.222;27.924;2022-12-07T13:31:35;28.63;;;13.70;;
30874;SDS011;17581;43.222;27.924;2022-12-07T13:34:04;72.00;;;16.65;;
30874;SDS011;17581;43.222;27.924;2022-12-07T13:36:50;45.45;;;16.20;;
30874;SDS011;17581;43.222;27.924;2022-12-07T13:39:18;74.05;;;26.63;;
30874;SDS011;17581;43.222;27.924;2022-12-07T13:41:57;61.65;;;16.02;;
30874;SDS011;17581;43.222;27.924;2022-12-07T13:44:25;36.47;;;15.48;;
30874;SDS011;17581;43.222;27.924;2022-12-07T13:49:47;30.73;;;12.68;;
30874;SDS011;17581;43.222;27.924;2022-12-07T13:52:15;44.25;;;16.23;;
30874;SDS011;17581;43.222;27.924;2022-12-07T13:54:58;22.85;;;13.68;;
30874;SDS011;17581;43.222;27.924;2022-12-07T13:57:30;52.17;;;17.10;;
30874;SDS011;17581;43.222;27.924;2022-12-07T13:59:59;34.78;;;15.50;;
30874;SDS011;17581;43.222;27.924;2022-12-07T14:02:32;35.75;;;14.75;;
30874;SDS011;17581;43.222;27.924;2022-12-07T14:07:59;44.90;;;18.52;;
30874;SDS011;17581;43.222;27.924;2022-12-07T14:15:55;33.85;;;17.80;;
30874;SDS011;17581;43.222;27.924;2022-12-07T14:18:26;52.17;;;17.65;;
30874;SDS011;17581;43.222;27.924;2022-12-07T14:21:05;41.60;;;16.67;;
30874;SDS011;17581;43.222;27.924;2022-12-07T14:23:43;56.72;;;21.20;;
30874;SDS011;17581;43.222;27.924;2022-12-07T14:26:13;49.47;;;19.00;;
30874;SDS011;17581;43.222;27.924;2022-12-07T14:28:40;42.58;;;21.10;;
30874;SDS011;17581;43.222;27.924;2022-12-07T14:31:14;60.88;;;19.90;;
30874;SDS011;17581;43.222;27.924;2022-12-07T14:33:41;46.17;;;20.77;;
30874;SDS011;17581;43.222;27.924;2022-12-07T14:36:11;45.03;;;20.08;;
30874;SDS011;17581;43.222;27.924;2022-12-07T14:38:37;76.40;;;21.77;;
30874;SDS011;17581;43.222;27.924;2022-12-07T14:41:04;43.28;;;18.20;;
30874;SDS011;17581;43.222;27.924;2022-12-07T14:43:49;48.33;;;20.17;;
30874;SDS011;17581;43.222;27.924;2022-12-07T14:46:15;73.88;;;24.17;;
30874;SDS011;17581;43.222;27.924;2022-12-07T14:48:40;52.65;;;21.17;;
30874;SDS011;17581;43.222;27.924;2022-12-07T14:51:07;97.63;;;33.08;;
30874;SDS011;17581;43.222;27.924;2022-12-07T14:53:37;93.88;;;29.60;;
30874;SDS011;17581;43.222;27.924;2022-12-07T14:56:07;76.47;;;26.05;;
30874;SDS011;17581;43.222;27.924;2022-12-07T14:58:33;42.10;;;21.52;;
30874;SDS011;17581;43.222;27.924;2022-12-07T15:00:59;83.03;;;27.27;;
30874;SDS011;17581;43.222;27.924;2022-12-07T15:03:25;82.28;;;25.48;;
30874;SDS011;17581;43.222;27.924;2022-12-07T15:05:50;78.15;;;24.08;;
30874;SDS011;17581;43.222;27.924;2022-12-07T15:08:16;61.70;;;24.27;;
30874;SDS011;17581;43.222;27.924;2022-12-07T15:10:41;74.75;;;26.48;;
30874;SDS011;17581;43.222;27.924;2022-12-07T15:13:07;64.90;;;24.80;;
30874;SDS011;17581;43.222;27.924;2022-12-07T15:15:52;76.18;;;26.45;;
30874;SDS011;17581;43.222;27.924;2022-12-07T15:18:18;114.43;;;35.10;;
30874;SDS011;17581;43.222;27.924;2022-12-07T15:20:45;78.63;;;30.50;;
30874;SDS011;17581;43.222;27.924;2022-12-07T15:23:11;104.78;;;35.20;;
30874;SDS011;17581;43.222;27.924;2022-12-07T15:25:40;119.28;;;34.88;;
30874;SDS011;17581;43.222;27.924;2022-12-07T15:28:06;126.70;;;37.05;;
30874;SDS011;17581;43.222;27.924;2022-12-07T15:30:31;108.40;;;35.25;;
30874;SDS011;17581;43.222;27.924;2022-12-07T15:32:56;125.05;;;41.58;;
30874;SDS011;17581;43.222;27.924;2022-12-07T15:35:22;116.18;;;39.55;;
30874;SDS011;17581;43.222;27.924;2022-12-07T15:37:47;120.43;;;41.28;;
30874;SDS011;17581;43.222;27.924;2022-12-07T15:40:13;141.90;;;43.50;;
30874;SDS011;17581;43.222;27.924;2022-12-07T15:42:39;125.63;;;42.08;;
30874;SDS011;17581;43.222;27.924;2022-12-07T15:45:05;120.88;;;39.33;;
30874;SDS011;17581;43.222;27.924;2022-12-07T15:47:38;105.07;;;38.30;;
30874;SDS011;17581;43.222;27.924;2022-12-07T15:50:06;122.53;;;36.45;;
30874;SDS011;17581;43.222;27.924;2022-12-07T15:52:35;102.38;;;32.92;;
30874;SDS011;17581;43.222;27.924;2022-12-07T15:55:01;83.95;;;31.63;;
30874;SDS011;17581;43.222;27.924;2022-12-07T15:57:28;79.20;;;31.25;;
30874;SDS011;17581;43.222;27.924;2022-12-07T15:59:54;105.32;;;33.45;;
30874;SDS011;17581;43.222;27.924;2022-12-07T16:02:20;104.10;;;33.25;;
30874;SDS011;17581;43.222;27.924;2022-12-07T16:04:47;112.28;;;33.80;;
30874;SDS011;17581;43.222;27.924;2022-12-07T16:07:12;75.72;;;25.00;;
30874;SDS011;17581;43.222;27.924;2022-12-07T16:09:40;100.68;;;28.23;;
30874;SDS011;17581;43.222;27.924;2022-12-07T16:12:06;71.93;;;25.92;;
30874;SDS011;17581;43.222;27.924;2022-12-07T16:14:32;47.78;;;22.60;;
30874;SDS011;17581;43.222;27.924;2022-12-07T16:16:58;63.72;;;24.75;;
30874;SDS011;17581;43.222;27.924;2022-12-07T16:19:24;47.33;;;21.45;;
30874;SDS011;17581;43.222;27.924;2022-12-07T16:21:50;64.63;;;24.90;;
30874;SDS011;17581;43.222;27.924;2022-12-07T16:24:15;85.25;;;25.67;;
30874;SDS011;17581;43.222;27.924;2022-12-07T16:26:41;78.65;;;27.20;;
30874;SDS011;17581;43.222;27.924;2022-12-07T16:29:07;44.17;;;24.23;;
30874;SDS011;17581;43.222;27.924;2022-12-07T16:31:36;45.70;;;23.35;;
30874;SDS011;17581;43.222;27.924;2022-12-07T16:34:01;43.58;;;23.92;;
30874;SDS011;17581;43.222;27.924;2022-12-07T16:36:27;49.85;;;23.20;;
30874;SDS011;17581;43.222;27.924;2022-12-07T16:38:52;45.05;;;23.52;;
30874;SDS011;17581;43.222;27.924;2022-12-07T16:41:18;50.05;;;24.35;;
30874;SDS011;17581;43.222;27.924;2022-12-07T16:43:44;52.67;;;23.45;;
30874;SDS011;17581;43.222;27.924;2022-12-07T16:46:10;38.58;;;21.85;;
30874;SDS011;17581;43.222;27.924;2022-12-07T16:48:39;52.88;;;25.80;;
30874;SDS011;17581;43.222;27.924;2022-12-07T16:51:05;49.40;;;24.77;;
30874;SDS011;17581;43.222;27.924;2022-12-07T16:53:33;43.10;;;25.05;;
30874;SDS011;17581;43.222;27.924;2022-12-07T16:56:00;56.35;;;25.38;;
30874;SDS011;17581;43.222;27.924;2022-12-07T16:58:25;49.30;;;26.05;;
30874;SDS011;17581;43.222;27.924;2022-12-07T17:00:50;57.40;;;27.63;;
30874;SDS011;17581;43.222;27.924;2022-12-07T17:03:16;48.88;;;25.92;;
30874;SDS011;17581;43.222;27.924;2022-12-07T17:05:42;40.92;;;24.45;;